sensor_id;sensor_type;location;lat;lon;timestamp;temperature;humidity
60701;DHT22;46541;49.894;10.886;2024-01-15T00:00:17;-0.50;99.90
60701;DHT22;46541;49.894;10.886;2024-01-15T00:02:44;-0.40;99.90
60701;DHT22;46541;49.894;10.886;2024-01-15T00:05:10;-0.30;99.90
60701;DHT22;46541;49.894;10.886;2024-01-15T00:07:37;-0.30;99.90
60701;DHT22;46541;49.894;10.886;2024-01-15T00:10:04;-0.40;99.90
60701;DHT22;46541;49.894;10.886;2024-01-15T00:12:31;-0.40;99.90
60701;DHT22;46541;49.894;10.886;2024-01-15T00:14:58;-0.40;99.90
60701;DHT22;46541;49.894;10.886;2024-01-15T00:17:25;-0.40;99.90
60701;DHT22;46541;49.894;10.886;2024-01-15T00:19:52;-0.40;99.90
60701;DHT22;46541;49.894;10.886;2024-01-15T00:22:19;-0.30;99.90
60701;DHT22;46541;49.894;10.886;2024-01-15T00:24:46;-0.30;99.90
60701;DHT22;46541;49.894;10.886;2024-01-15T00:27:13;-0.40;99.90
60701;DHT22;46541;49.894;10.886;2024-01-15T00:29:40;-0.40;99.90
60701;DHT22;46541;49.894;10.886;2024-01-15T00:32:06;-0.30;99.90
60701;DHT22;46541;49.894;10.886;2024-01-15T00:34:33;-0.30;99.90
60701;DHT22;46541;49.894;10.886;2024-01-15T00:37:00;-0.40;99.90
60701;DHT22;46541;49.894;10.886;2024-01-15T00:39:27;-0.40;99.90
60701;DHT22;46541;49.894;10.886;2024-01-15T00:41:54;-0.40;99.90
60701;DHT22;46541;49.894;10.886;2024-01-15T00:44:20;-0.40;99.90
60701;DHT22;46541;49.894;10.886;2024-01-15T00:46:47;-0.60;99.90
60701;DHT22;46541;49.894;10.886;2024-01-15T00:49:14;-0.50;99.90
60701;DHT22;46541;49.894;10.886;2024-01-15T00:51:41;-0.50;99.90
60701;DHT22;46541;49.894;10.886;2024-01-15T00:54:08;-0.60;99.90
60701;DHT22;46541;49.894;10.886;2024-01-15T00:56:36;-0.60;99.90
60701;DHT22;46541;49.894;10.886;2024-01-15T00:59:03;-0.60;99.90
60701;DHT22;46541;49.894;10.886;2024-01-15T01:01:30;-0.60;99.90
60701;DHT22;46541;49.894;10.886;2024-01-15T01:03:57;-0.70;99.90
60701;DHT22;46541;49.894;10.886;2024-01-15T01:06:24;-0.60;99.90
60701;DHT22;46541;49.894;10.886;2024-01-15T01:08:51;-0.50;99.90
60701;DHT22;46541;49.894;10.886;2024-01-15T01:11:18;-0.50;99.90
60701;DHT22;46541;49.894;10.886;2024-01-15T01:13:45;-0.50;99.90
60701;DHT22;46541;49.894;10.886;2024-01-15T01:16:11;-0.50;99.90
60701;DHT22;46541;49.894;10.886;2024-01-15T01:18:38;-0.50;99.90
60701;DHT22;46541;49.894;10.886;2024-01-15T01:21:05;-0.40;99.90
60701;DHT22;46541;49.894;10.886;2024-01-15T01:23:32;-0.40;99.90
60701;DHT22;46541;49.894;10.886;2024-01-15T01:25:59;-0.40;99.90
60701;DHT22;46541;49.894;10.886;2024-01-15T01:28:26;-0.30;99.90
60701;DHT22;46541;49.894;10.886;2024-01-15T01:30:52;-0.30;99.90
60701;DHT22;46541;49.894;10.886;2024-01-15T01:33:20;-0.30;99.90
60701;DHT22;46541;49.894;10.886;2024-01-15T01:35:47;-0.30;99.90
60701;DHT22;46541;49.894;10.886;2024-01-15T01:38:14;-0.20;99.90
60701;DHT22;46541;49.894;10.886;2024-01-15T01:40:40;-0.10;99.90
60701;DHT22;46541;49.894;10.886;2024-01-15T01:43:09;-0.20;99.90
60701;DHT22;46541;49.894;10.886;2024-01-15T01:45:36;-0.20;99.90
60701;DHT22;46541;49.894;10.886;2024-01-15T01:48:04;-0.10;99.90
60701;DHT22;46541;49.894;10.886;2024-01-15T01:50:31;-0.20;99.90
60701;DHT22;46541;49.894;10.886;2024-01-15T01:53:00;-0.20;99.90
60701;DHT22;46541;49.894;10.886;2024-01-15T01:55:27;-0.20;99.90
60701;DHT22;46541;49.894;10.886;2024-01-15T01:57:56;-0.20;99.90
60701;DHT22;46541;49.894;10.886;2024-01-15T02:00:23;-0.20;99.90
60701;DHT22;46541;49.894;10.886;2024-01-15T02:02:50;-0.20;99.90
60701;DHT22;46541;49.894;10.886;2024-01-15T02:05:18;-0.20;99.90
60701;DHT22;46541;49.894;10.886;2024-01-15T02:07:46;-0.20;99.90
60701;DHT22;46541;49.894;10.886;2024-01-15T02:10:13;-0.10;99.90
60701;DHT22;46541;49.894;10.886;2024-01-15T02:12:42;-0.10;99.90
60701;DHT22;46541;49.894;10.886;2024-01-15T02:15:09;-0.10;99.90
60701;DHT22;46541;49.894;10.886;2024-01-15T02:17:59;-0.10;99.90
60701;DHT22;46541;49.894;10.886;2024-01-15T02:20:27;-0.20;99.90
60701;DHT22;46541;49.894;10.886;2024-01-15T02:22:53;-0.10;99.90
60701;DHT22;46541;49.894;10.886;2024-01-15T02:25:20;-0.10;99.90
60701;DHT22;46541;49.894;10.886;2024-01-15T02:27:48;-0.10;99.90
60701;DHT22;46541;49.894;10.886;2024-01-15T02:30:15;-0.10;99.90
60701;DHT22;46541;49.894;10.886;2024-01-15T02:32:43;-0.10;99.90
60701;DHT22;46541;49.894;10.886;2024-01-15T02:35:10;0.00;99.90
60701;DHT22;46541;49.894;10.886;2024-01-15T02:37:36;0.00;99.90
60701;DHT22;46541;49.894;10.886;2024-01-15T02:40:03;0.00;99.90
60701;DHT22;46541;49.894;10.886;2024-01-15T02:42:30;-0.10;99.90
60701;DHT22;46541;49.894;10.886;2024-01-15T02:44:57;-0.10;99.90
60701;DHT22;46541;49.894;10.886;2024-01-15T02:47:24;-0.10;99.90
60701;DHT22;46541;49.894;10.886;2024-01-15T02:49:51;-0.10;99.90
60701;DHT22;46541;49.894;10.886;2024-01-15T02:52:18;-0.10;99.90
60701;DHT22;46541;49.894;10.886;2024-01-15T02:54:45;-0.10;99.90
60701;DHT22;46541;49.894;10.886;2024-01-15T02:57:12;-0.10;99.90
60701;DHT22;46541;49.894;10.886;2024-01-15T02:59:38;-0.10;99.90
60701;DHT22;46541;49.894;10.886;2024-01-15T03:02:05;-0.10;99.90
60701;DHT22;46541;49.894;10.886;2024-01-15T03:04:32;-0.20;99.90
60701;DHT22;46541;49.894;10.886;2024-01-15T03:06:59;-0.20;99.90
60701;DHT22;46541;49.894;10.886;2024-01-15T03:09:25;-0.20;99.90
60701;DHT22;46541;49.894;10.886;2024-01-15T03:11:52;-0.20;99.90
60701;DHT22;46541;49.894;10.886;2024-01-15T03:14:19;-0.10;99.90
60701;DHT22;46541;49.894;10.886;2024-01-15T03:16:46;-0.10;99.90
60701;DHT22;46541;49.894;10.886;2024-01-15T03:19:13;-0.20;99.90
60701;DHT22;46541;49.894;10.886;2024-01-15T03:21:40;-0.30;99.90
60701;DHT22;46541;49.894;10.886;2024-01-15T03:24:07;-0.30;99.90
60701;DHT22;46541;49.894;10.886;2024-01-15T03:26:34;-0.30;99.90
60701;DHT22;46541;49.894;10.886;2024-01-15T03:29:00;-0.30;99.90
60701;DHT22;46541;49.894;10.886;2024-01-15T03:31:27;-0.40;99.90
60701;DHT22;46541;49.894;10.886;2024-01-15T03:33:54;-0.40;99.90
60701;DHT22;46541;49.894;10.886;2024-01-15T03:36:21;-0.30;99.90
60701;DHT22;46541;49.894;10.886;2024-01-15T03:38:48;-0.40;99.90
60701;DHT22;46541;49.894;10.886;2024-01-15T03:41:14;-0.40;99.90
60701;DHT22;46541;49.894;10.886;2024-01-15T03:43:41;-0.40;99.90
60701;DHT22;46541;49.894;10.886;2024-01-15T03:46:08;-0.40;99.90
60701;DHT22;46541;49.894;10.886;2024-01-15T03:48:35;-0.40;99.90
60701;DHT22;46541;49.894;10.886;2024-01-15T03:51:02;-0.40;99.90
60701;DHT22;46541;49.894;10.886;2024-01-15T03:53:28;-0.40;99.90
60701;DHT22;46541;49.894;10.886;2024-01-15T03:55:55;-0.50;99.90
60701;DHT22;46541;49.894;10.886;2024-01-15T03:58:22;-0.40;99.90
60701;DHT22;46541;49.894;10.886;2024-01-15T04:00:49;-0.40;99.90
60701;DHT22;46541;49.894;10.886;2024-01-15T04:03:16;-0.30;99.90
60701;DHT22;46541;49.894;10.886;2024-01-15T04:05:43;-0.30;99.90
60701;DHT22;46541;49.894;10.886;2024-01-15T04:08:10;-0.30;99.90
60701;DHT22;46541;49.894;10.886;2024-01-15T04:10:37;-0.20;99.90
60701;DHT22;46541;49.894;10.886;2024-01-15T04:13:03;-0.30;99.90
60701;DHT22;46541;49.894;10.886;2024-01-15T04:15:30;-0.30;99.90
60701;DHT22;46541;49.894;10.886;2024-01-15T04:17:57;-0.20;99.90
60701;DHT22;46541;49.894;10.886;2024-01-15T04:20:24;-0.20;99.90
60701;DHT22;46541;49.894;10.886;2024-01-15T04:22:52;-0.20;99.90
60701;DHT22;46541;49.894;10.886;2024-01-15T04:25:19;-0.20;99.90
60701;DHT22;46541;49.894;10.886;2024-01-15T04:27:45;-0.20;99.90
60701;DHT22;46541;49.894;10.886;2024-01-15T04:30:13;-0.20;99.90
60701;DHT22;46541;49.894;10.886;2024-01-15T04:32:40;-0.10;99.90
60701;DHT22;46541;49.894;10.886;2024-01-15T04:35:07;-0.10;99.90
60701;DHT22;46541;49.894;10.886;2024-01-15T04:37:34;-0.10;99.90
60701;DHT22;46541;49.894;10.886;2024-01-15T04:40:01;-0.10;99.90
60701;DHT22;46541;49.894;10.886;2024-01-15T04:42:30;-0.10;99.90
60701;DHT22;46541;49.894;10.886;2024-01-15T04:44:57;-0.10;99.90
60701;DHT22;46541;49.894;10.886;2024-01-15T04:47:24;-0.10;99.90
60701;DHT22;46541;49.894;10.886;2024-01-15T04:49:51;-0.10;99.90
60701;DHT22;46541;49.894;10.886;2024-01-15T04:52:18;-0.10;99.90
60701;DHT22;46541;49.894;10.886;2024-01-15T04:54:45;-0.10;99.90
60701;DHT22;46541;49.894;10.886;2024-01-15T04:57:12;-0.10;99.90
60701;DHT22;46541;49.894;10.886;2024-01-15T04:59:39;0.00;99.90
60701;DHT22;46541;49.894;10.886;2024-01-15T05:02:06;-0.10;99.90
60701;DHT22;46541;49.894;10.886;2024-01-15T05:04:33;0.00;99.90
60701;DHT22;46541;49.894;10.886;2024-01-15T05:06:59;0.00;99.90
60701;DHT22;46541;49.894;10.886;2024-01-15T05:09:26;0.00;99.90
60701;DHT22;46541;49.894;10.886;2024-01-15T05:11:57;0.00;99.90
60701;DHT22;46541;49.894;10.886;2024-01-15T05:14:24;0.00;99.90
60701;DHT22;46541;49.894;10.886;2024-01-15T05:16:50;0.00;99.90
60701;DHT22;46541;49.894;10.886;2024-01-15T05:19:18;-0.10;99.90
60701;DHT22;46541;49.894;10.886;2024-01-15T05:21:45;0.00;99.90
60701;DHT22;46541;49.894;10.886;2024-01-15T05:24:12;0.00;99.90
60701;DHT22;46541;49.894;10.886;2024-01-15T05:26:39;0.00;99.90
60701;DHT22;46541;49.894;10.886;2024-01-15T05:29:05;0.00;99.90
60701;DHT22;46541;49.894;10.886;2024-01-15T05:31:32;0.10;99.90
60701;DHT22;46541;49.894;10.886;2024-01-15T05:33:59;-0.10;99.90
60701;DHT22;46541;49.894;10.886;2024-01-15T05:36:26;-0.10;99.90
60701;DHT22;46541;49.894;10.886;2024-01-15T05:38:53;-0.10;99.90
60701;DHT22;46541;49.894;10.886;2024-01-15T05:41:20;-0.10;99.90
60701;DHT22;46541;49.894;10.886;2024-01-15T05:43:47;-0.10;99.90
60701;DHT22;46541;49.894;10.886;2024-01-15T05:46:13;-0.10;99.90
60701;DHT22;46541;49.894;10.886;2024-01-15T05:48:42;-0.10;99.90
60701;DHT22;46541;49.894;10.886;2024-01-15T05:51:09;-0.10;99.90
60701;DHT22;46541;49.894;10.886;2024-01-15T05:53:36;-0.10;99.90
60701;DHT22;46541;49.894;10.886;2024-01-15T05:56:06;0.00;99.90
60701;DHT22;46541;49.894;10.886;2024-01-15T05:58:33;0.00;99.90
60701;DHT22;46541;49.894;10.886;2024-01-15T06:01:00;0.00;99.90
60701;DHT22;46541;49.894;10.886;2024-01-15T06:03:27;0.00;99.90
60701;DHT22;46541;49.894;10.886;2024-01-15T06:05:54;0.00;99.90
60701;DHT22;46541;49.894;10.886;2024-01-15T06:08:21;0.10;99.90
60701;DHT22;46541;49.894;10.886;2024-01-15T06:10:47;0.10;99.90
60701;DHT22;46541;49.894;10.886;2024-01-15T06:13:14;0.10;99.90
60701;DHT22;46541;49.894;10.886;2024-01-15T06:15:41;0.10;99.90
60701;DHT22;46541;49.894;10.886;2024-01-15T06:18:08;0.10;99.90
60701;DHT22;46541;49.894;10.886;2024-01-15T06:20:35;0.10;99.90
60701;DHT22;46541;49.894;10.886;2024-01-15T06:23:02;0.00;99.90
60701;DHT22;46541;49.894;10.886;2024-01-15T06:25:28;0.00;99.90
60701;DHT22;46541;49.894;10.886;2024-01-15T06:27:55;0.10;99.90
60701;DHT22;46541;49.894;10.886;2024-01-15T06:30:22;0.00;99.90
60701;DHT22;46541;49.894;10.886;2024-01-15T06:32:49;0.00;99.90
60701;DHT22;46541;49.894;10.886;2024-01-15T06:35:17;0.00;99.90
60701;DHT22;46541;49.894;10.886;2024-01-15T06:37:48;0.10;99.90
60701;DHT22;46541;49.894;10.886;2024-01-15T06:40:15;0.10;99.90
60701;DHT22;46541;49.894;10.886;2024-01-15T06:42:41;0.10;99.90
60701;DHT22;46541;49.894;10.886;2024-01-15T06:45:08;0.10;99.90
60701;DHT22;46541;49.894;10.886;2024-01-15T06:47:35;0.10;99.90
60701;DHT22;46541;49.894;10.886;2024-01-15T06:50:02;0.10;99.90
60701;DHT22;46541;49.894;10.886;2024-01-15T06:52:29;0.10;99.90
60701;DHT22;46541;49.894;10.886;2024-01-15T06:54:56;0.10;99.90
60701;DHT22;46541;49.894;10.886;2024-01-15T06:57:23;0.10;99.90
60701;DHT22;46541;49.894;10.886;2024-01-15T06:59:49;0.20;99.90
60701;DHT22;46541;49.894;10.886;2024-01-15T07:02:16;0.20;99.90
60701;DHT22;46541;49.894;10.886;2024-01-15T07:04:43;0.10;99.90
60701;DHT22;46541;49.894;10.886;2024-01-15T07:07:09;0.10;99.90
60701;DHT22;46541;49.894;10.886;2024-01-15T07:09:36;0.10;99.90
60701;DHT22;46541;49.894;10.886;2024-01-15T07:12:03;0.10;99.90
60701;DHT22;46541;49.894;10.886;2024-01-15T07:14:30;0.10;99.90
60701;DHT22;46541;49.894;10.886;2024-01-15T07:16:57;0.00;99.90
60701;DHT22;46541;49.894;10.886;2024-01-15T07:19:24;0.10;99.90
60701;DHT22;46541;49.894;10.886;2024-01-15T07:21:51;0.10;99.90
60701;DHT22;46541;49.894;10.886;2024-01-15T07:24:22;0.10;99.90
60701;DHT22;46541;49.894;10.886;2024-01-15T07:26:49;0.20;99.90
60701;DHT22;46541;49.894;10.886;2024-01-15T07:29:16;0.20;99.90
60701;DHT22;46541;49.894;10.886;2024-01-15T07:31:50;0.40;99.90
60701;DHT22;46541;49.894;10.886;2024-01-15T07:34:18;0.30;99.90
60701;DHT22;46541;49.894;10.886;2024-01-15T07:36:44;0.30;99.90
60701;DHT22;46541;49.894;10.886;2024-01-15T07:39:12;0.40;99.90
60701;DHT22;46541;49.894;10.886;2024-01-15T07:41:39;0.40;99.90
60701;DHT22;46541;49.894;10.886;2024-01-15T07:44:05;0.40;99.90
60701;DHT22;46541;49.894;10.886;2024-01-15T07:46:32;0.40;99.90
60701;DHT22;46541;49.894;10.886;2024-01-15T07:48:59;0.50;99.90
60701;DHT22;46541;49.894;10.886;2024-01-15T07:51:26;0.50;99.90
60701;DHT22;46541;49.894;10.886;2024-01-15T07:53:53;0.50;99.90
60701;DHT22;46541;49.894;10.886;2024-01-15T07:56:21;0.50;99.90
60701;DHT22;46541;49.894;10.886;2024-01-15T07:58:48;0.50;99.90
60701;DHT22;46541;49.894;10.886;2024-01-15T08:01:15;0.40;99.90
60701;DHT22;46541;49.894;10.886;2024-01-15T08:03:42;0.30;99.90
60701;DHT22;46541;49.894;10.886;2024-01-15T08:06:09;0.40;99.90
60701;DHT22;46541;49.894;10.886;2024-01-15T08:08:37;0.40;99.90
60701;DHT22;46541;49.894;10.886;2024-01-15T08:11:05;0.40;99.90
60701;DHT22;46541;49.894;10.886;2024-01-15T08:13:31;0.40;99.90
60701;DHT22;46541;49.894;10.886;2024-01-15T08:15:58;0.50;99.90
60701;DHT22;46541;49.894;10.886;2024-01-15T08:18:25;0.40;99.90
60701;DHT22;46541;49.894;10.886;2024-01-15T08:20:52;0.40;99.90
60701;DHT22;46541;49.894;10.886;2024-01-15T08:23:20;0.50;99.90
60701;DHT22;46541;49.894;10.886;2024-01-15T08:25:47;0.50;99.90
60701;DHT22;46541;49.894;10.886;2024-01-15T08:28:14;0.60;99.90
60701;DHT22;46541;49.894;10.886;2024-01-15T08:30:41;0.70;99.90
60701;DHT22;46541;49.894;10.886;2024-01-15T08:33:08;0.70;99.90
60701;DHT22;46541;49.894;10.886;2024-01-15T08:35:47;0.80;99.90
60701;DHT22;46541;49.894;10.886;2024-01-15T08:38:13;0.80;99.90
60701;DHT22;46541;49.894;10.886;2024-01-15T08:40:40;0.80;99.90
60701;DHT22;46541;49.894;10.886;2024-01-15T08:43:07;0.90;99.90
60701;DHT22;46541;49.894;10.886;2024-01-15T08:45:33;0.90;99.90
60701;DHT22;46541;49.894;10.886;2024-01-15T08:48:01;0.90;99.90
60701;DHT22;46541;49.894;10.886;2024-01-15T08:50:28;0.90;99.90
60701;DHT22;46541;49.894;10.886;2024-01-15T08:52:55;0.90;99.90
60701;DHT22;46541;49.894;10.886;2024-01-15T08:55:22;1.00;99.90
60701;DHT22;46541;49.894;10.886;2024-01-15T08:57:49;1.00;99.90
60701;DHT22;46541;49.894;10.886;2024-01-15T09:00:17;1.00;99.90
60701;DHT22;46541;49.894;10.886;2024-01-15T09:02:44;1.10;99.90
60701;DHT22;46541;49.894;10.886;2024-01-15T09:05:10;1.10;99.90
60701;DHT22;46541;49.894;10.886;2024-01-15T09:07:37;0.80;99.90
60701;DHT22;46541;49.894;10.886;2024-01-15T09:10:04;0.90;99.90
60701;DHT22;46541;49.894;10.886;2024-01-15T09:12:31;0.80;99.90
60701;DHT22;46541;49.894;10.886;2024-01-15T09:14:58;0.80;99.90
60701;DHT22;46541;49.894;10.886;2024-01-15T09:17:25;0.90;99.90
60701;DHT22;46541;49.894;10.886;2024-01-15T09:19:51;1.00;99.90
60701;DHT22;46541;49.894;10.886;2024-01-15T09:22:18;1.00;99.90
60701;DHT22;46541;49.894;10.886;2024-01-15T09:24:45;1.00;99.90
60701;DHT22;46541;49.894;10.886;2024-01-15T09:27:12;1.10;99.90
60701;DHT22;46541;49.894;10.886;2024-01-15T09:29:40;1.10;99.90
60701;DHT22;46541;49.894;10.886;2024-01-15T09:32:08;1.20;99.90
60701;DHT22;46541;49.894;10.886;2024-01-15T09:34:35;1.20;99.90
60701;DHT22;46541;49.894;10.886;2024-01-15T09:37:02;1.10;99.90
60701;DHT22;46541;49.894;10.886;2024-01-15T09:39:30;1.10;99.90
60701;DHT22;46541;49.894;10.886;2024-01-15T09:41:58;1.20;99.90
60701;DHT22;46541;49.894;10.886;2024-01-15T09:44:25;1.20;99.90
60701;DHT22;46541;49.894;10.886;2024-01-15T09:46:53;1.20;99.90
60701;DHT22;46541;49.894;10.886;2024-01-15T09:49:21;1.30;99.90
60701;DHT22;46541;49.894;10.886;2024-01-15T09:51:48;1.30;99.90
60701;DHT22;46541;49.894;10.886;2024-01-15T09:54:28;1.30;99.90
60701;DHT22;46541;49.894;10.886;2024-01-15T09:56:55;1.40;99.90
60701;DHT22;46541;49.894;10.886;2024-01-15T09:59:22;1.40;99.90
60701;DHT22;46541;49.894;10.886;2024-01-15T10:01:58;1.40;99.90
60701;DHT22;46541;49.894;10.886;2024-01-15T10:04:25;1.40;99.90
60701;DHT22;46541;49.894;10.886;2024-01-15T10:06:53;1.40;99.90
60701;DHT22;46541;49.894;10.886;2024-01-15T10:09:20;1.40;99.90
60701;DHT22;46541;49.894;10.886;2024-01-15T10:11:47;1.40;99.90
60701;DHT22;46541;49.894;10.886;2024-01-15T10:14:14;1.40;99.90
60701;DHT22;46541;49.894;10.886;2024-01-15T10:16:42;1.40;99.90
60701;DHT22;46541;49.894;10.886;2024-01-15T10:19:09;1.40;99.90
60701;DHT22;46541;49.894;10.886;2024-01-15T10:21:37;1.40;99.90
60701;DHT22;46541;49.894;10.886;2024-01-15T10:24:04;1.50;99.90
60701;DHT22;46541;49.894;10.886;2024-01-15T10:26:33;1.50;99.90
60701;DHT22;46541;49.894;10.886;2024-01-15T10:29:00;1.60;99.90
60701;DHT22;46541;49.894;10.886;2024-01-15T10:31:27;1.60;99.90
60701;DHT22;46541;49.894;10.886;2024-01-15T10:34:10;1.60;99.90
60701;DHT22;46541;49.894;10.886;2024-01-15T10:36:42;1.70;99.90
60701;DHT22;46541;49.894;10.886;2024-01-15T10:39:13;1.70;99.90
60701;DHT22;46541;49.894;10.886;2024-01-15T10:41:40;1.70;99.90
60701;DHT22;46541;49.894;10.886;2024-01-15T10:44:07;1.60;99.90
60701;DHT22;46541;49.894;10.886;2024-01-15T10:46:35;1.50;99.90
60701;DHT22;46541;49.894;10.886;2024-01-15T10:49:02;1.40;99.90
60701;DHT22;46541;49.894;10.886;2024-01-15T10:51:29;1.40;99.90
60701;DHT22;46541;49.894;10.886;2024-01-15T10:53:57;1.40;99.90
60701;DHT22;46541;49.894;10.886;2024-01-15T10:56:24;1.50;99.90
60701;DHT22;46541;49.894;10.886;2024-01-15T10:58:52;1.50;99.90
60701;DHT22;46541;49.894;10.886;2024-01-15T11:01:25;1.60;99.90
60701;DHT22;46541;49.894;10.886;2024-01-15T11:03:56;1.60;99.90
60701;DHT22;46541;49.894;10.886;2024-01-15T11:06:27;1.70;99.90
60701;DHT22;46541;49.894;10.886;2024-01-15T11:08:55;1.50;99.90
60701;DHT22;46541;49.894;10.886;2024-01-15T11:11:22;1.60;99.90
60701;DHT22;46541;49.894;10.886;2024-01-15T11:13:50;1.60;99.90
60701;DHT22;46541;49.894;10.886;2024-01-15T11:16:19;1.60;99.90
60701;DHT22;46541;49.894;10.886;2024-01-15T11:21:25;1.70;99.90
60701;DHT22;46541;49.894;10.886;2024-01-15T11:24:00;1.80;99.90
60701;DHT22;46541;49.894;10.886;2024-01-15T11:31:57;1.90;99.90
60701;DHT22;46541;49.894;10.886;2024-01-15T11:35:19;1.90;99.90
60701;DHT22;46541;49.894;10.886;2024-01-15T11:40:18;2.20;99.90
60701;DHT22;46541;49.894;10.886;2024-01-15T11:42:46;2.20;99.90
60701;DHT22;46541;49.894;10.886;2024-01-15T11:45:20;2.30;99.90
60701;DHT22;46541;49.894;10.886;2024-01-15T11:50:17;2.50;99.90
60701;DHT22;46541;49.894;10.886;2024-01-15T11:52:58;2.50;99.90
60701;DHT22;46541;49.894;10.886;2024-01-15T11:55:39;2.50;99.90
60701;DHT22;46541;49.894;10.886;2024-01-15T11:58:11;2.50;99.90
60701;DHT22;46541;49.894;10.886;2024-01-15T12:00:44;2.50;99.90
60701;DHT22;46541;49.894;10.886;2024-01-15T12:03:12;2.40;99.90
60701;DHT22;46541;49.894;10.886;2024-01-15T12:05:39;2.40;99.90
60701;DHT22;46541;49.894;10.886;2024-01-15T12:08:06;2.40;99.90
60701;DHT22;46541;49.894;10.886;2024-01-15T12:10:38;2.30;99.90
60701;DHT22;46541;49.894;10.886;2024-01-15T12:15:43;2.40;99.90
60701;DHT22;46541;49.894;10.886;2024-01-15T12:18:15;2.50;99.90
60701;DHT22;46541;49.894;10.886;2024-01-15T12:20:44;2.50;99.90
60701;DHT22;46541;49.894;10.886;2024-01-15T12:23:13;2.50;99.90
60701;DHT22;46541;49.894;10.886;2024-01-15T12:25:41;2.60;99.90
60701;DHT22;46541;49.894;10.886;2024-01-15T12:28:08;2.60;99.90
60701;DHT22;46541;49.894;10.886;2024-01-15T12:30:35;2.70;99.90
60701;DHT22;46541;49.894;10.886;2024-01-15T12:33:04;2.70;99.90
60701;DHT22;46541;49.894;10.886;2024-01-15T12:35:33;2.70;99.90
60701;DHT22;46541;49.894;10.886;2024-01-15T12:38:00;2.70;99.90
60701;DHT22;46541;49.894;10.886;2024-01-15T12:40:31;2.70;99.90
60701;DHT22;46541;49.894;10.886;2024-01-15T12:42:58;2.70;99.90
60701;DHT22;46541;49.894;10.886;2024-01-15T12:45:25;2.70;99.90
60701;DHT22;46541;49.894;10.886;2024-01-15T12:47:52;2.70;99.90
60701;DHT22;46541;49.894;10.886;2024-01-15T12:50:23;2.80;99.90
60701;DHT22;46541;49.894;10.886;2024-01-15T12:52:50;2.80;99.90
60701;DHT22;46541;49.894;10.886;2024-01-15T12:55:17;2.70;99.90
60701;DHT22;46541;49.894;10.886;2024-01-15T12:57:43;2.60;99.90
60701;DHT22;46541;49.894;10.886;2024-01-15T13:00:12;2.60;99.90
60701;DHT22;46541;49.894;10.886;2024-01-15T13:02:42;2.50;99.90
60701;DHT22;46541;49.894;10.886;2024-01-15T13:05:11;2.60;99.90
60701;DHT22;46541;49.894;10.886;2024-01-15T13:07:40;2.70;99.90
60701;DHT22;46541;49.894;10.886;2024-01-15T13:10:07;2.70;99.90
60701;DHT22;46541;49.894;10.886;2024-01-15T13:12:37;2.80;99.90
60701;DHT22;46541;49.894;10.886;2024-01-15T13:15:05;3.00;99.90
60701;DHT22;46541;49.894;10.886;2024-01-15T13:17:32;3.00;99.90
60701;DHT22;46541;49.894;10.886;2024-01-15T13:19:59;3.00;99.90
60701;DHT22;46541;49.894;10.886;2024-01-15T13:22:28;2.90;99.90
60701;DHT22;46541;49.894;10.886;2024-01-15T13:24:59;2.80;99.90
60701;DHT22;46541;49.894;10.886;2024-01-15T13:27:27;2.80;99.90
60701;DHT22;46541;49.894;10.886;2024-01-15T13:29:54;2.80;99.90
60701;DHT22;46541;49.894;10.886;2024-01-15T13:32:25;2.80;99.90
60701;DHT22;46541;49.894;10.886;2024-01-15T13:34:56;2.80;99.90
60701;DHT22;46541;49.894;10.886;2024-01-15T13:37:23;2.90;99.90
60701;DHT22;46541;49.894;10.886;2024-01-15T13:39:54;2.90;99.90
60701;DHT22;46541;49.894;10.886;2024-01-15T13:42:21;2.90;99.90
60701;DHT22;46541;49.894;10.886;2024-01-15T13:44:50;2.90;99.90
60701;DHT22;46541;49.894;10.886;2024-01-15T13:47:18;2.90;99.90
60701;DHT22;46541;49.894;10.886;2024-01-15T13:49:45;2.80;99.90
60701;DHT22;46541;49.894;10.886;2024-01-15T13:52:11;2.60;99.90
60701;DHT22;46541;49.894;10.886;2024-01-15T13:54:39;2.60;99.90
60701;DHT22;46541;49.894;10.886;2024-01-15T13:57:16;2.50;99.90
60701;DHT22;46541;49.894;10.886;2024-01-15T13:59:45;2.50;99.90
60701;DHT22;46541;49.894;10.886;2024-01-15T14:02:12;2.30;99.90
60701;DHT22;46541;49.894;10.886;2024-01-15T14:04:43;2.40;99.90
60701;DHT22;46541;49.894;10.886;2024-01-15T14:07:10;2.20;99.90
60701;DHT22;46541;49.894;10.886;2024-01-15T14:09:36;2.10;99.90
60701;DHT22;46541;49.894;10.886;2024-01-15T14:12:04;2.10;99.90
60701;DHT22;46541;49.894;10.886;2024-01-15T14:14:33;2.10;99.90
60701;DHT22;46541;49.894;10.886;2024-01-15T14:16:59;2.10;99.90
60701;DHT22;46541;49.894;10.886;2024-01-15T14:19:26;2.20;99.90
60701;DHT22;46541;49.894;10.886;2024-01-15T14:21:53;2.30;99.90
60701;DHT22;46541;49.894;10.886;2024-01-15T14:24:20;2.30;99.90
60701;DHT22;46541;49.894;10.886;2024-01-15T14:26:47;2.30;99.90
60701;DHT22;46541;49.894;10.886;2024-01-15T14:29:13;2.30;99.90
60701;DHT22;46541;49.894;10.886;2024-01-15T14:31:40;2.30;99.90
60701;DHT22;46541;49.894;10.886;2024-01-15T14:34:07;2.10;99.90
60701;DHT22;46541;49.894;10.886;2024-01-15T14:36:34;2.20;99.90
60701;DHT22;46541;49.894;10.886;2024-01-15T14:39:01;2.30;99.90
60701;DHT22;46541;49.894;10.886;2024-01-15T14:41:29;2.20;99.90
60701;DHT22;46541;49.894;10.886;2024-01-15T14:43:56;2.10;99.90
60701;DHT22;46541;49.894;10.886;2024-01-15T14:46:23;2.10;99.90
60701;DHT22;46541;49.894;10.886;2024-01-15T14:48:50;2.00;99.90
60701;DHT22;46541;49.894;10.886;2024-01-15T14:51:17;2.00;99.90
60701;DHT22;46541;49.894;10.886;2024-01-15T14:53:44;2.00;99.90
60701;DHT22;46541;49.894;10.886;2024-01-15T14:56:11;2.00;99.90
60701;DHT22;46541;49.894;10.886;2024-01-15T14:58:38;2.00;99.90
60701;DHT22;46541;49.894;10.886;2024-01-15T15:01:04;1.90;99.90
60701;DHT22;46541;49.894;10.886;2024-01-15T15:03:31;1.80;99.90
60701;DHT22;46541;49.894;10.886;2024-01-15T15:05:59;1.80;99.90
60701;DHT22;46541;49.894;10.886;2024-01-15T15:08:26;1.70;99.90
60701;DHT22;46541;49.894;10.886;2024-01-15T15:10:53;1.70;99.90
60701;DHT22;46541;49.894;10.886;2024-01-15T15:13:20;1.70;99.90
60701;DHT22;46541;49.894;10.886;2024-01-15T15:16:03;1.60;99.90
60701;DHT22;46541;49.894;10.886;2024-01-15T15:18:30;1.60;99.90
60701;DHT22;46541;49.894;10.886;2024-01-15T15:20:57;1.60;99.90
60701;DHT22;46541;49.894;10.886;2024-01-15T15:23:25;1.60;99.90
60701;DHT22;46541;49.894;10.886;2024-01-15T15:25:52;1.70;99.90
60701;DHT22;46541;49.894;10.886;2024-01-15T15:28:18;1.60;99.90
60701;DHT22;46541;49.894;10.886;2024-01-15T15:30:45;1.60;99.90
60701;DHT22;46541;49.894;10.886;2024-01-15T15:33:12;1.60;99.90
60701;DHT22;46541;49.894;10.886;2024-01-15T15:35:39;1.60;99.90
60701;DHT22;46541;49.894;10.886;2024-01-15T15:38:06;1.60;99.90
60701;DHT22;46541;49.894;10.886;2024-01-15T15:40:32;1.70;99.90
60701;DHT22;46541;49.894;10.886;2024-01-15T15:42:59;1.70;99.90